createdAt,value
2023-03-29T00:01:37.354Z,2.47
2023-03-29T00:04:41.450Z,4.85
2023-03-29T00:07:44.342Z,4.60
2023-03-29T00:10:49.727Z,1.60
2023-03-29T00:13:53.285Z,1.77
2023-03-29T00:16:56.351Z,1.58
2023-03-29T00:19:59.330Z,2.75
2023-03-29T00:23:02.316Z,3.03
2023-03-29T00:26:07.813Z,4.30
2023-03-29T00:29:11.066Z,1.97
2023-03-29T00:32:14.759Z,3.97
2023-03-29T00:35:17.654Z,4.80
2023-03-29T00:38:20.712Z,3.05
2023-03-29T00:41:23.766Z,3.60
2023-03-29T00:45:04.786Z,2.20
2023-03-29T00:48:13.844Z,4.78
2023-03-29T00:51:19.018Z,3.70
2023-03-29T00:54:21.756Z,5.07
2023-03-29T00:57:27.710Z,6.03
2023-03-29T01:00:37.167Z,2.87
2023-03-29T01:03:49.543Z,3.00
2023-03-29T01:07:24.538Z,3.72
2023-03-29T01:10:37.833Z,3.20
2023-03-29T01:14:00.152Z,4.47
2023-03-29T01:17:04.650Z,4.10
2023-03-29T01:20:17.699Z,5.13
2023-03-29T01:23:38.398Z,3.50
2023-03-29T01:26:44.086Z,2.72
2023-03-29T01:29:57.408Z,11.18
2023-03-29T01:33:10.676Z,8.83
2023-03-29T01:36:19.293Z,9.00
2023-03-29T01:39:22.249Z,4.85
2023-03-29T01:42:46.886Z,9.75
2023-03-29T01:46:06.244Z,8.82
2023-03-29T01:49:22.535Z,5.40
2023-03-29T01:52:35.229Z,7.38
2023-03-29T01:55:43.094Z,5.68
2023-03-29T01:58:51.356Z,5.43
2023-03-29T02:02:00.005Z,5.18
2023-03-29T02:05:04.131Z,4.07
2023-03-29T02:08:10.992Z,6.38
2023-03-29T02:11:14.247Z,6.30
2023-03-29T02:14:17.143Z,3.53
2023-03-29T02:17:25.288Z,4.40
2023-03-29T02:20:33.274Z,3.13
2023-03-29T02:23:45.474Z,7.82
2023-03-29T02:26:49.500Z,3.78
2023-03-29T02:29:52.553Z,5.20
2023-03-29T02:33:35.257Z,3.72
2023-03-29T02:36:43.345Z,3.80
2023-03-29T02:39:49.854Z,3.83
2023-03-29T02:42:56.119Z,3.70
2023-03-29T02:45:59.305Z,4.75
2023-03-29T02:49:02.260Z,4.35
2023-03-29T02:52:19.402Z,3.03
2023-03-29T02:55:25.081Z,3.13
2023-03-29T02:58:28.980Z,4.35
2023-03-29T03:01:32.064Z,3.97
2023-03-29T03:04:35.829Z,3.50
2023-03-29T03:07:40.715Z,2.43
2023-03-29T03:10:43.949Z,4.00
2023-03-29T03:13:46.802Z,4.68
2023-03-29T03:16:50.235Z,5.07
2023-03-29T03:19:53.485Z,4.13
2023-03-29T03:22:57.607Z,5.13
2023-03-29T03:26:00.825Z,4.85
2023-03-29T03:29:05.175Z,3.83
2023-03-29T03:32:32.819Z,4.78
2023-03-29T03:36:02.966Z,3.22
2023-03-29T03:39:07.397Z,4.53
2023-03-29T03:42:10.287Z,5.32
2023-03-29T03:45:17.671Z,5.32
2023-03-29T03:48:39.251Z,8.88
2023-03-29T03:51:53.246Z,9.52
2023-03-29T03:54:56.155Z,13.63
2023-03-29T03:58:17.995Z,8.32
2023-03-29T04:01:20.838Z,11.02
2023-03-29T04:04:34.914Z,12.38
2023-03-29T04:07:54.387Z,16.85
2023-03-29T04:11:14.121Z,15.40
2023-03-29T04:14:18.005Z,12.57
2023-03-29T04:17:37.113Z,10.02
2023-03-29T04:21:00.661Z,7.57
2023-03-29T04:24:04.987Z,8.68
2023-03-29T04:27:10.972Z,7.97
2023-03-29T04:30:13.854Z,5.60
2023-03-29T04:33:54.678Z,12.57
2023-03-29T04:36:59.045Z,5.15
2023-03-29T04:40:04.112Z,7.40
2023-03-29T04:43:18.406Z,6.20
2023-03-29T04:46:33.418Z,8.32
2023-03-29T04:49:41.784Z,8.35
2023-03-29T04:52:50.926Z,8.75
2023-03-29T04:55:55.731Z,8.15
2023-03-29T04:59:18.816Z,15.17
2023-03-29T05:02:22.198Z,15.45
2023-03-29T05:05:27.215Z,16.23
2023-03-29T05:08:30.389Z,38.15
2023-03-29T05:11:53.456Z,15.75
2023-03-29T05:14:57.926Z,21.07
2023-03-29T05:18:02.839Z,61.05
2023-03-29T05:21:07.766Z,198.70
2023-03-29T05:24:12.373Z,132.52
2023-03-29T05:27:27.963Z,61.38
2023-03-29T05:30:38.762Z,20.90
2023-03-29T05:33:51.384Z,13.55
2023-03-29T05:36:54.304Z,11.52
2023-03-29T05:40:05.617Z,13.05
2023-03-29T05:43:13.561Z,11.57
2023-03-29T05:46:16.649Z,13.07
2023-03-29T05:49:25.633Z,10.15
2023-03-29T05:52:43.245Z,11.40
2023-03-29T05:55:46.837Z,17.05
2023-03-29T05:58:58.911Z,11.73
2023-03-29T06:02:03.977Z,8.63
2023-03-29T06:05:08.174Z,11.57
2023-03-29T06:08:33.560Z,9.98
2023-03-29T06:11:51.166Z,8.93
2023-03-29T06:15:07.315Z,11.75
2023-03-29T06:18:25.593Z,12.13
2023-03-29T06:21:28.658Z,66.45
2023-03-29T06:24:32.459Z,20.00
2023-03-29T06:27:40.819Z,24.95
2023-03-29T06:30:46.381Z,27.45
2023-03-29T06:33:49.910Z,23.73
2023-03-29T06:37:29.246Z,11.30
2023-03-29T06:40:44.822Z,10.65
2023-03-29T06:43:47.835Z,10.45
2023-03-29T06:46:51.907Z,11.05
2023-03-29T06:49:54.855Z,9.53
2023-03-29T06:53:08.259Z,7.75
2023-03-29T06:56:11.433Z,5.80
2023-03-29T06:59:14.243Z,6.88
2023-03-29T07:02:29.292Z,8.63
2023-03-29T07:05:45.004Z,6.17
2023-03-29T07:08:52.566Z,7.18
2023-03-29T07:12:31.138Z,10.93
2023-03-29T07:15:37.047Z,9.20
2023-03-29T07:19:06.261Z,8.18
2023-03-29T07:22:32.199Z,7.63
2023-03-29T07:25:38.515Z,5.80
2023-03-29T07:28:41.510Z,6.10
2023-03-29T07:31:44.478Z,5.70
2023-03-29T07:35:12.272Z,3.42
2023-03-29T07:38:15.733Z,4.13
2023-03-29T07:41:24.033Z,2.17
2023-03-29T07:44:33.536Z,4.10
2023-03-29T07:47:36.747Z,3.10
2023-03-29T07:50:39.781Z,1.60
2023-03-29T07:53:43.825Z,3.03
2023-03-29T07:57:07.032Z,1.83
2023-03-29T08:00:16.647Z,2.80
2023-03-29T08:03:30.421Z,2.13
2023-03-29T08:06:33.863Z,2.70
2023-03-29T08:09:37.590Z,2.90
2023-03-29T08:12:42.833Z,3.58
2023-03-29T08:15:48.690Z,2.72
2023-03-29T08:19:07.303Z,3.33
2023-03-29T08:22:25.405Z,3.83
2023-03-29T08:26:00.591Z,2.77
2023-03-29T08:29:04.165Z,3.10
2023-03-29T08:32:07.451Z,5.25
2023-03-29T08:35:10.789Z,3.25
2023-03-29T08:38:28.086Z,6.30
2023-03-29T08:41:51.186Z,3.67
2023-03-29T08:44:56.746Z,7.20
2023-03-29T08:48:02.708Z,6.05
2023-03-29T08:51:21.631Z,4.53
2023-03-29T08:54:36.179Z,3.45
2023-03-29T08:57:48.935Z,2.57
2023-03-29T09:01:06.272Z,3.38
2023-03-29T09:04:27.651Z,2.30
2023-03-29T09:07:58.211Z,3.03
2023-03-29T09:11:07.299Z,1.70
2023-03-29T09:14:36.206Z,4.60
2023-03-29T09:17:53.335Z,3.80
2023-03-29T09:21:05.461Z,1.92
2023-03-29T09:24:51.051Z,2.38
2023-03-29T09:28:06.005Z,2.63
2023-03-29T09:31:26.793Z,2.40
2023-03-29T09:34:54.767Z,3.30
2023-03-29T09:37:58.703Z,2.83
2023-03-29T09:41:14.975Z,4.32
2023-03-29T09:44:30.854Z,2.90
2023-03-29T09:47:50.060Z,1.63
2023-03-29T09:50:53.378Z,3.50
2023-03-29T09:53:57.701Z,2.03
2023-03-29T09:57:24.132Z,1.90
2023-03-29T10:00:26.973Z,4.60
2023-03-29T10:03:32.420Z,3.37
2023-03-29T10:07:01.488Z,1.98
2023-03-29T10:10:10.628Z,2.88
2023-03-29T10:13:23.294Z,2.38
2023-03-29T10:16:50.002Z,2.85
2023-03-29T10:19:57.967Z,2.00
2023-03-29T10:23:00.917Z,3.08
2023-03-29T10:26:07.949Z,4.82
2023-03-29T10:29:13.337Z,3.50
2023-03-29T10:32:32.560Z,2.03
2023-03-29T10:35:41.842Z,3.77
2023-03-29T10:38:45.242Z,4.35
2023-03-29T10:41:52.664Z,3.58
2023-03-29T10:44:58.280Z,4.07
2023-03-29T10:48:01.510Z,2.88
2023-03-29T10:51:06.151Z,2.93
2023-03-29T10:54:14.973Z,3.65
2023-03-29T10:57:51.234Z,3.28
2023-03-29T11:00:58.168Z,3.65
2023-03-29T11:04:12.726Z,3.38
2023-03-29T11:07:43.293Z,3.07
2023-03-29T11:11:07.700Z,3.92
2023-03-29T11:14:38.988Z,3.38
2023-03-29T11:17:57.659Z,3.00
2023-03-29T11:21:12.690Z,3.33
2023-03-29T11:24:34.111Z,2.27
2023-03-29T11:27:37.043Z,3.20
2023-03-29T11:30:52.034Z,2.88
2023-03-29T11:33:54.764Z,2.53
2023-03-29T11:37:00.158Z,2.53
2023-03-29T11:40:39.372Z,1.43
2023-03-29T11:43:54.904Z,2.03
2023-03-29T11:47:11.058Z,3.58
2023-03-29T11:50:56.396Z,3.03
2023-03-29T11:54:17.546Z,2.15
2023-03-29T11:57:33.759Z,2.73
2023-03-29T12:00:42.674Z,4.68
2023-03-29T12:04:01.969Z,2.28
2023-03-29T12:07:32.361Z,4.22
2023-03-29T12:10:42.158Z,3.53
2023-03-29T12:13:52.706Z,2.67
2023-03-29T12:17:10.075Z,1.92
2023-03-29T12:20:23.491Z,2.35
2023-03-29T12:23:31.147Z,1.67
2023-03-29T12:26:51.912Z,1.65
2023-03-29T12:30:34.409Z,2.90
2023-03-29T12:34:02.092Z,4.00
2023-03-29T12:38:19.390Z,2.72
2023-03-29T12:41:45.758Z,3.47
2023-03-29T12:45:19.454Z,1.58
2023-03-29T12:48:28.758Z,2.60
2023-03-29T12:51:33.594Z,2.35
2023-03-29T12:54:36.342Z,3.33
2023-03-29T12:57:45.162Z,1.63
2023-03-29T13:00:56.243Z,2.38
2023-03-29T13:04:04.026Z,2.17
2023-03-29T13:07:15.182Z,2.47
2023-03-29T13:10:52.235Z,1.98
2023-03-29T13:13:55.907Z,1.67
2023-03-29T13:17:17.852Z,2.58
2023-03-29T13:20:43.007Z,3.63
2023-03-29T13:24:10.814Z,4.32
2023-03-29T13:28:01.745Z,3.35
2023-03-29T13:31:08.780Z,3.95
2023-03-29T13:34:20.363Z,2.53
2023-03-29T13:37:23.023Z,1.70
2023-03-29T13:40:28.589Z,1.60
2023-03-29T13:43:52.350Z,2.05
2023-03-29T13:47:04.441Z,2.30
2023-03-29T13:50:19.658Z,3.97
2023-03-29T13:53:31.230Z,2.70
2023-03-29T13:56:57.159Z,3.80
2023-03-29T14:00:17.921Z,3.38
2023-03-29T14:03:30.042Z,2.22
2023-03-29T14:06:36.797Z,1.70
2023-03-29T14:09:45.329Z,3.43
2023-03-29T14:12:48.855Z,2.60
2023-03-29T14:16:04.716Z,2.60
2023-03-29T14:19:41.841Z,2.35
2023-03-29T14:22:45.739Z,1.45
2023-03-29T14:25:48.475Z,2.67
2023-03-29T14:28:54.099Z,1.50
2023-03-29T14:31:56.814Z,1.50
2023-03-29T14:35:00.710Z,1.80
2023-03-29T14:38:03.890Z,2.75
2023-03-29T14:41:07.609Z,3.70
2023-03-29T14:44:11.515Z,1.30
2023-03-29T14:47:31.785Z,2.17
2023-03-29T14:50:36.562Z,1.98
2023-03-29T14:53:41.820Z,3.38
2023-03-29T14:56:45.655Z,2.60
2023-03-29T14:59:59.721Z,2.65
2023-03-29T15:03:03.079Z,2.60
2023-03-29T15:06:06.799Z,2.90
2023-03-29T15:09:19.470Z,3.97
2023-03-29T15:12:22.698Z,4.73
2023-03-29T15:15:25.901Z,3.47
2023-03-29T15:18:34.540Z,3.03
2023-03-29T15:21:38.950Z,3.30
2023-03-29T15:24:48.945Z,5.63
2023-03-29T15:27:57.229Z,2.20
2023-03-29T15:31:20.261Z,2.45
2023-03-29T15:34:28.201Z,1.92
2023-03-29T15:37:31.730Z,1.98
2023-03-29T15:40:34.584Z,2.30
2023-03-29T15:43:37.551Z,2.27
2023-03-29T15:46:40.243Z,1.65
2023-03-29T15:49:43.311Z,2.42
2023-03-29T15:52:46.016Z,2.63
2023-03-29T15:55:52.303Z,2.33
2023-03-29T15:58:55.152Z,1.43
2023-03-29T16:01:58.926Z,1.88
2023-03-29T16:05:01.882Z,2.78
2023-03-29T16:08:04.731Z,3.00
2023-03-29T16:11:07.513Z,2.08
2023-03-29T16:14:24.285Z,1.67
2023-03-29T16:17:27.047Z,1.70
2023-03-29T16:20:29.792Z,3.28
2023-03-29T16:23:32.863Z,2.10
2023-03-29T16:26:35.660Z,2.97
2023-03-29T16:29:38.361Z,2.73
2023-03-29T16:32:41.756Z,4.57
2023-03-29T16:35:44.610Z,4.25
2023-03-29T16:38:47.433Z,4.93
2023-03-29T16:41:50.530Z,7.53
2023-03-29T16:44:54.673Z,3.73
2023-03-29T16:47:57.570Z,3.65
2023-03-29T16:51:00.894Z,4.53
2023-03-29T16:54:04.211Z,3.20
2023-03-29T16:57:07.908Z,7.95
2023-03-29T17:00:15.809Z,37.37
2023-03-29T17:03:18.866Z,16.60
2023-03-29T17:06:22.037Z,6.10
2023-03-29T17:09:25.187Z,3.50
2023-03-29T17:12:28.940Z,4.68
2023-03-29T17:15:31.949Z,5.60
2023-03-29T17:18:34.950Z,4.30
2023-03-29T17:21:37.874Z,5.90
2023-03-29T17:24:40.670Z,9.52
2023-03-29T17:27:43.495Z,8.55
2023-03-29T17:30:46.521Z,6.70
2023-03-29T17:33:52.161Z,6.65
2023-03-29T17:36:57.954Z,8.07
2023-03-29T17:40:01.104Z,8.50
2023-03-29T17:43:04.167Z,6.93
2023-03-29T17:46:07.205Z,9.87
2023-03-29T17:49:10.132Z,8.40
2023-03-29T17:52:12.993Z,7.45
2023-03-29T17:55:16.388Z,12.85
2023-03-29T17:58:19.654Z,11.15
2023-03-29T18:01:23.917Z,11.97
2023-03-29T18:04:27.087Z,9.05
2023-03-29T18:07:31.398Z,6.57
2023-03-29T18:10:35.147Z,7.93
2023-03-29T18:13:40.028Z,9.75
2023-03-29T18:16:42.998Z,4.97
2023-03-29T18:19:46.576Z,4.15
2023-03-29T18:22:49.556Z,3.05
2023-03-29T18:25:52.319Z,4.25
2023-03-29T18:28:55.562Z,3.60
2023-03-29T18:32:03.455Z,3.60
2023-03-29T18:35:06.947Z,5.72
2023-03-29T18:38:09.726Z,10.15
2023-03-29T18:41:14.143Z,10.18
2023-03-29T18:44:17.309Z,6.35
2023-03-29T18:47:20.401Z,5.20
2023-03-29T18:50:23.510Z,6.68
2023-03-29T18:53:26.639Z,12.80
2023-03-29T18:56:29.912Z,9.52
2023-03-29T18:59:32.804Z,9.52
2023-03-29T19:02:36.355Z,7.97
2023-03-29T19:05:40.085Z,16.30
2023-03-29T19:08:42.950Z,9.00
2023-03-29T19:11:48.105Z,8.40
2023-03-29T19:14:51.438Z,7.22
2023-03-29T19:17:54.487Z,12.37
2023-03-29T19:20:57.492Z,9.35
2023-03-29T19:24:04.038Z,9.27
2023-03-29T19:27:10.172Z,7.30
2023-03-29T19:30:14.871Z,9.20
2023-03-29T19:33:18.571Z,12.27
2023-03-29T19:36:22.328Z,8.27
2023-03-29T19:39:26.830Z,15.23
2023-03-29T19:42:30.195Z,45.22
2023-03-29T19:45:33.811Z,23.45
2023-03-29T19:48:37.929Z,18.67
2023-03-29T19:51:42.501Z,10.95
2023-03-29T19:54:45.666Z,11.80
2023-03-29T19:57:48.897Z,11.00
2023-03-29T20:00:53.327Z,8.57
2023-03-29T20:03:56.340Z,12.10
2023-03-29T20:06:59.502Z,9.73
2023-03-29T20:10:02.968Z,10.98
2023-03-29T20:13:06.767Z,6.05
2023-03-29T20:16:13.300Z,9.50
2023-03-29T20:19:17.422Z,12.13
2023-03-29T20:22:20.354Z,9.85
2023-03-29T20:25:23.147Z,9.80
2023-03-29T20:28:26.450Z,7.70
2023-03-29T20:31:30.159Z,6.70
2023-03-29T20:34:33.234Z,7.97
2023-03-29T20:37:36.128Z,6.18
2023-03-29T20:40:40.975Z,8.13
2023-03-29T20:43:43.940Z,14.68
2023-03-29T20:46:54.637Z,14.57
2023-03-29T20:49:57.998Z,10.23
2023-03-29T20:53:04.170Z,12.10
2023-03-29T20:56:06.985Z,13.38
2023-03-29T20:59:12.725Z,15.10
2023-03-29T21:02:21.435Z,23.40
2023-03-29T21:05:28.804Z,24.00
2023-03-29T21:08:31.936Z,25.20
2023-03-29T21:11:34.651Z,24.13
2023-03-29T21:14:38.037Z,26.80
2023-03-29T21:17:41.368Z,20.63
2023-03-29T21:20:44.477Z,17.57
2023-03-29T21:23:47.198Z,16.42
2023-03-29T21:26:51.189Z,13.02
2023-03-29T21:29:54.280Z,11.55
2023-03-29T21:32:57.114Z,17.98
2023-03-29T21:36:00.892Z,20.90
2023-03-29T21:39:04.027Z,13.45
2023-03-29T21:42:07.261Z,17.63
2023-03-29T21:45:10.560Z,11.18
2023-03-29T21:48:13.260Z,13.55
2023-03-29T21:51:16.107Z,8.87
2023-03-29T21:54:18.830Z,9.60
2023-03-29T21:57:22.374Z,6.47
2023-03-29T22:00:25.400Z,10.38
2023-03-29T22:03:28.604Z,14.52
2023-03-29T22:06:31.488Z,13.03
2023-03-29T22:09:35.461Z,12.13
2023-03-29T22:12:39.586Z,10.82
2023-03-29T22:15:42.751Z,6.25
2023-03-29T22:18:49.590Z,7.47
2023-03-29T22:21:52.583Z,4.93
2023-03-29T22:24:55.937Z,7.05
2023-03-29T22:27:58.651Z,3.45
2023-03-29T22:31:03.203Z,5.47
2023-03-29T22:34:06.297Z,6.57
2023-03-29T22:37:08.994Z,4.40
2023-03-29T22:40:13.358Z,5.15
2023-03-29T22:43:16.157Z,4.07
2023-03-29T22:46:20.196Z,5.05
2023-03-29T22:49:23.110Z,6.00
2023-03-29T22:52:25.883Z,6.03
2023-03-29T22:55:28.612Z,5.90
2023-03-29T22:58:31.404Z,6.05
2023-03-29T23:01:34.365Z,5.70
2023-03-29T23:04:38.852Z,5.55
2023-03-29T23:07:41.673Z,6.53
2023-03-29T23:10:46.526Z,5.40
2023-03-29T23:13:49.597Z,4.93
2023-03-29T23:16:52.381Z,5.65
2023-03-29T23:19:55.353Z,4.38
2023-03-29T23:22:59.561Z,4.90
2023-03-29T23:26:02.605Z,4.53
2023-03-29T23:29:05.608Z,6.40
2023-03-29T23:32:08.870Z,5.50
2023-03-29T23:35:11.654Z,5.28
2023-03-29T23:38:14.403Z,5.97
2023-03-29T23:41:17.881Z,6.20
2023-03-29T23:44:20.646Z,5.32
2023-03-29T23:47:23.657Z,4.47
2023-03-29T23:50:28.818Z,4.07
2023-03-29T23:53:32.232Z,4.90
2023-03-29T23:56:35.230Z,4.40
2023-03-29T23:59:38.042Z,6.05
